sensor_id;sensor_type;location;lat;lon;timestamp;P1;durP1;ratioP1;P2;durP2;ratioP2
9208;SDS011;4639;48.862;9.188;2023-07-22T00:02:21;365.00;;;343.38;;
9208;SDS011;4639;48.862;9.188;2023-07-22T00:04:47;338.70;;;318.88;;
9208;SDS011;4639;48.862;9.188;2023-07-22T00:07:13;330.77;;;311.30;;
9208;SDS011;4639;48.862;9.188;2023-07-22T00:09:40;330.33;;;311.30;;
9208;SDS011;4639;48.862;9.188;2023-07-22T00:12:06;328.63;;;309.75;;
9208;SDS011;4639;48.862;9.188;2023-07-22T00:14:33;355.35;;;334.52;;
9208;SDS011;4639;48.862;9.188;2023-07-22T00:16:58;325.48;;;306.75;;
9208;SDS011;4639;48.862;9.188;2023-07-22T00:19:24;329.50;;;310.38;;
9208;SDS011;4639;48.862;9.188;2023-07-22T00:21:49;333.73;;;314.10;;
9208;SDS011;4639;48.862;9.188;2023-07-22T00:24:17;346.08;;;325.85;;
9208;SDS011;4639;48.862;9.188;2023-07-22T00:26:42;314.17;;;295.88;;
9208;SDS011;4639;48.862;9.188;2023-07-22T00:29:08;317.38;;;298.95;;
9208;SDS011;4639;48.862;9.188;2023-07-22T00:31:34;296.67;;;280.00;;
9208;SDS011;4639;48.862;9.188;2023-07-22T00:34:00;311.40;;;293.33;;
9208;SDS011;4639;48.862;9.188;2023-07-22T00:36:25;309.30;;;291.20;;
9208;SDS011;4639;48.862;9.188;2023-07-22T00:38:51;289.02;;;271.75;;
9208;SDS011;4639;48.862;9.188;2023-07-22T00:41:17;293.27;;;276.00;;
9208;SDS011;4639;48.862;9.188;2023-07-22T00:43:43;297.85;;;280.40;;
9208;SDS011;4639;48.862;9.188;2023-07-22T00:46:09;289.25;;;272.52;;
9208;SDS011;4639;48.862;9.188;2023-07-22T00:48:34;298.45;;;281.50;;
9208;SDS011;4639;48.862;9.188;2023-07-22T00:51:01;285.83;;;269.33;;
9208;SDS011;4639;48.862;9.188;2023-07-22T00:53:26;275.40;;;259.83;;
9208;SDS011;4639;48.862;9.188;2023-07-22T00:55:53;279.60;;;263.50;;
9208;SDS011;4639;48.862;9.188;2023-07-22T00:58:20;301.95;;;285.02;;
9208;SDS011;4639;48.862;9.188;2023-07-22T01:00:46;292.13;;;275.92;;
9208;SDS011;4639;48.862;9.188;2023-07-22T01:03:11;288.48;;;272.23;;
9208;SDS011;4639;48.862;9.188;2023-07-22T01:05:38;302.50;;;285.27;;
9208;SDS011;4639;48.862;9.188;2023-07-22T01:08:04;279.88;;;264.02;;
9208;SDS011;4639;48.862;9.188;2023-07-22T01:10:31;275.75;;;260.25;;
9208;SDS011;4639;48.862;9.188;2023-07-22T01:12:56;321.10;;;302.20;;
9208;SDS011;4639;48.862;9.188;2023-07-22T01:15:22;294.30;;;276.45;;
9208;SDS011;4639;48.862;9.188;2023-07-22T01:17:49;300.33;;;282.00;;
9208;SDS011;4639;48.862;9.188;2023-07-22T01:20:16;328.35;;;308.33;;
9208;SDS011;4639;48.862;9.188;2023-07-22T01:22:49;326.60;;;307.10;;
9208;SDS011;4639;48.862;9.188;2023-07-22T01:25:22;326.60;;;307.98;;
9208;SDS011;4639;48.862;9.188;2023-07-22T01:27:48;376.30;;;353.92;;
9208;SDS011;4639;48.862;9.188;2023-07-22T01:30:15;322.30;;;303.48;;
9208;SDS011;4639;48.862;9.188;2023-07-22T01:32:41;324.00;;;304.85;;
9208;SDS011;4639;48.862;9.188;2023-07-22T01:35:07;328.00;;;308.38;;
9208;SDS011;4639;48.862;9.188;2023-07-22T01:37:33;328.27;;;308.92;;
9208;SDS011;4639;48.862;9.188;2023-07-22T01:39:59;316.13;;;297.55;;
9208;SDS011;4639;48.862;9.188;2023-07-22T01:42:24;343.63;;;323.60;;
9208;SDS011;4639;48.862;9.188;2023-07-22T01:44:50;339.85;;;319.58;;
9208;SDS011;4639;48.862;9.188;2023-07-22T01:47:16;322.20;;;303.00;;
9208;SDS011;4639;48.862;9.188;2023-07-22T01:49:41;353.60;;;332.23;;
9208;SDS011;4639;48.862;9.188;2023-07-22T01:52:08;320.20;;;301.38;;
9208;SDS011;4639;48.862;9.188;2023-07-22T01:54:34;355.52;;;334.30;;
9208;SDS011;4639;48.862;9.188;2023-07-22T01:57:00;330.50;;;311.52;;
9208;SDS011;4639;48.862;9.188;2023-07-22T01:59:25;326.63;;;307.30;;
9208;SDS011;4639;48.862;9.188;2023-07-22T02:01:51;366.40;;;344.73;;
9208;SDS011;4639;48.862;9.188;2023-07-22T02:04:17;368.48;;;346.80;;
9208;SDS011;4639;48.862;9.188;2023-07-22T02:06:42;360.60;;;339.48;;
9208;SDS011;4639;48.862;9.188;2023-07-22T02:09:08;321.90;;;303.50;;
9208;SDS011;4639;48.862;9.188;2023-07-22T02:11:36;285.85;;;269.42;;
9208;SDS011;4639;48.862;9.188;2023-07-22T02:14:02;302.83;;;284.67;;
9208;SDS011;4639;48.862;9.188;2023-07-22T02:16:31;302.45;;;284.45;;
9208;SDS011;4639;48.862;9.188;2023-07-22T02:19:01;314.25;;;295.88;;
9208;SDS011;4639;48.862;9.188;2023-07-22T02:21:28;324.58;;;304.50;;
9208;SDS011;4639;48.862;9.188;2023-07-22T02:23:53;331.33;;;311.75;;
9208;SDS011;4639;48.862;9.188;2023-07-22T02:26:19;340.90;;;320.90;;
9208;SDS011;4639;48.862;9.188;2023-07-22T02:28:45;321.05;;;302.45;;
9208;SDS011;4639;48.862;9.188;2023-07-22T02:31:11;338.35;;;318.27;;
9208;SDS011;4639;48.862;9.188;2023-07-22T02:33:37;367.08;;;345.90;;
9208;SDS011;4639;48.862;9.188;2023-07-22T02:36:03;380.05;;;357.17;;
9208;SDS011;4639;48.862;9.188;2023-07-22T02:38:28;383.67;;;361.17;;
9208;SDS011;4639;48.862;9.188;2023-07-22T02:40:54;349.58;;;329.42;;
9208;SDS011;4639;48.862;9.188;2023-07-22T02:43:20;382.35;;;359.63;;
9208;SDS011;4639;48.862;9.188;2023-07-22T02:45:45;376.50;;;354.77;;
9208;SDS011;4639;48.862;9.188;2023-07-22T02:48:11;376.38;;;354.42;;
9208;SDS011;4639;48.862;9.188;2023-07-22T02:50:36;359.60;;;338.92;;
9208;SDS011;4639;48.862;9.188;2023-07-22T02:53:02;385.80;;;363.33;;
9208;SDS011;4639;48.862;9.188;2023-07-22T02:55:28;391.45;;;368.98;;
9208;SDS011;4639;48.862;9.188;2023-07-22T02:57:54;356.65;;;336.38;;
9208;SDS011;4639;48.862;9.188;2023-07-22T03:00:19;385.80;;;363.58;;
9208;SDS011;4639;48.862;9.188;2023-07-22T03:02:49;375.65;;;354.33;;
9208;SDS011;4639;48.862;9.188;2023-07-22T03:05:16;376.42;;;354.70;;
9208;SDS011;4639;48.862;9.188;2023-07-22T03:07:41;370.90;;;349.80;;
9208;SDS011;4639;48.862;9.188;2023-07-22T03:10:07;349.52;;;329.65;;
9208;SDS011;4639;48.862;9.188;2023-07-22T03:12:34;339.30;;;319.73;;
9208;SDS011;4639;48.862;9.188;2023-07-22T03:15:00;402.05;;;379.20;;
9208;SDS011;4639;48.862;9.188;2023-07-22T03:17:26;417.60;;;393.63;;
9208;SDS011;4639;48.862;9.188;2023-07-22T03:19:52;396.40;;;374.15;;
9208;SDS011;4639;48.862;9.188;2023-07-22T03:22:18;347.77;;;328.42;;
9208;SDS011;4639;48.862;9.188;2023-07-22T03:24:44;336.50;;;317.42;;
9208;SDS011;4639;48.862;9.188;2023-07-22T03:27:10;345.05;;;325.40;;
9208;SDS011;4639;48.862;9.188;2023-07-22T03:29:37;364.63;;;344.13;;
9208;SDS011;4639;48.862;9.188;2023-07-22T03:32:03;371.27;;;350.65;;
9208;SDS011;4639;48.862;9.188;2023-07-22T03:34:29;349.63;;;329.90;;
9208;SDS011;4639;48.862;9.188;2023-07-22T03:36:55;326.83;;;308.65;;
9208;SDS011;4639;48.862;9.188;2023-07-22T03:39:21;343.08;;;323.90;;
9208;SDS011;4639;48.862;9.188;2023-07-22T03:41:47;378.05;;;356.85;;
9208;SDS011;4639;48.862;9.188;2023-07-22T03:44:12;351.20;;;331.73;;
9208;SDS011;4639;48.862;9.188;2023-07-22T03:46:39;368.92;;;348.20;;
9208;SDS011;4639;48.862;9.188;2023-07-22T03:49:04;403.63;;;380.75;;
9208;SDS011;4639;48.862;9.188;2023-07-22T03:51:30;370.15;;;349.83;;
9208;SDS011;4639;48.862;9.188;2023-07-22T03:53:56;398.70;;;376.23;;
9208;SDS011;4639;48.862;9.188;2023-07-22T03:56:22;349.50;;;330.35;;
9208;SDS011;4639;48.862;9.188;2023-07-22T03:58:49;362.25;;;342.60;;
9208;SDS011;4639;48.862;9.188;2023-07-22T04:01:17;365.77;;;346.05;;
9208;SDS011;4639;48.862;9.188;2023-07-22T04:03:43;349.83;;;330.83;;
9208;SDS011;4639;48.862;9.188;2023-07-22T04:06:09;349.33;;;329.70;;
9208;SDS011;4639;48.862;9.188;2023-07-22T04:08:35;341.05;;;322.80;;
9208;SDS011;4639;48.862;9.188;2023-07-22T04:11:01;393.95;;;371.90;;
9208;SDS011;4639;48.862;9.188;2023-07-22T04:13:27;354.83;;;335.73;;
9208;SDS011;4639;48.862;9.188;2023-07-22T04:15:52;353.50;;;334.20;;
9208;SDS011;4639;48.862;9.188;2023-07-22T04:18:19;354.38;;;335.35;;
9208;SDS011;4639;48.862;9.188;2023-07-22T04:20:45;351.63;;;332.23;;
9208;SDS011;4639;48.862;9.188;2023-07-22T04:23:13;342.77;;;323.98;;
9208;SDS011;4639;48.862;9.188;2023-07-22T04:25:42;388.70;;;366.92;;
9208;SDS011;4639;48.862;9.188;2023-07-22T04:28:08;354.85;;;335.48;;
9208;SDS011;4639;48.862;9.188;2023-07-22T04:30:35;363.08;;;343.27;;
9208;SDS011;4639;48.862;9.188;2023-07-22T04:33:01;331.83;;;313.85;;
9208;SDS011;4639;48.862;9.188;2023-07-22T04:35:29;340.40;;;321.83;;
9208;SDS011;4639;48.862;9.188;2023-07-22T04:37:56;346.67;;;327.45;;
9208;SDS011;4639;48.862;9.188;2023-07-22T04:40:21;354.67;;;335.00;;
9208;SDS011;4639;48.862;9.188;2023-07-22T04:42:47;286.35;;;270.45;;
9208;SDS011;4639;48.862;9.188;2023-07-22T04:45:12;296.80;;;280.50;;
9208;SDS011;4639;48.862;9.188;2023-07-22T04:47:39;286.20;;;270.30;;
9208;SDS011;4639;48.862;9.188;2023-07-22T04:50:05;281.45;;;266.20;;
9208;SDS011;4639;48.862;9.188;2023-07-22T04:52:34;404.98;;;382.58;;
9208;SDS011;4639;48.862;9.188;2023-07-22T04:55:00;390.70;;;369.30;;
9208;SDS011;4639;48.862;9.188;2023-07-22T04:57:27;400.05;;;377.60;;
9208;SDS011;4639;48.862;9.188;2023-07-22T04:59:52;410.60;;;387.40;;
9208;SDS011;4639;48.862;9.188;2023-07-22T05:02:18;398.02;;;375.70;;
9208;SDS011;4639;48.862;9.188;2023-07-22T05:04:43;404.90;;;382.20;;
9208;SDS011;4639;48.862;9.188;2023-07-22T05:07:09;371.50;;;351.02;;
9208;SDS011;4639;48.862;9.188;2023-07-22T05:09:36;377.13;;;356.33;;
9208;SDS011;4639;48.862;9.188;2023-07-22T05:12:01;418.77;;;395.98;;
9208;SDS011;4639;48.862;9.188;2023-07-22T05:14:27;404.75;;;382.50;;
9208;SDS011;4639;48.862;9.188;2023-07-22T05:16:53;398.77;;;376.70;;
9208;SDS011;4639;48.862;9.188;2023-07-22T05:19:18;398.88;;;376.88;;
9208;SDS011;4639;48.862;9.188;2023-07-22T05:21:45;418.10;;;395.05;;
9208;SDS011;4639;48.862;9.188;2023-07-22T05:24:11;393.88;;;372.00;;
9208;SDS011;4639;48.862;9.188;2023-07-22T05:26:37;373.23;;;352.25;;
9208;SDS011;4639;48.862;9.188;2023-07-22T05:29:03;382.27;;;360.42;;
9208;SDS011;4639;48.862;9.188;2023-07-22T05:31:28;388.00;;;366.33;;
9208;SDS011;4639;48.862;9.188;2023-07-22T05:33:54;420.25;;;396.58;;
9208;SDS011;4639;48.862;9.188;2023-07-22T05:36:20;401.35;;;378.85;;
9208;SDS011;4639;48.862;9.188;2023-07-22T05:38:46;405.25;;;382.48;;
9208;SDS011;4639;48.862;9.188;2023-07-22T05:41:12;388.27;;;366.75;;
9208;SDS011;4639;48.862;9.188;2023-07-22T05:43:37;372.45;;;350.85;;
9208;SDS011;4639;48.862;9.188;2023-07-22T05:46:03;392.77;;;369.05;;
9208;SDS011;4639;48.862;9.188;2023-07-22T05:48:28;393.23;;;370.13;;
9208;SDS011;4639;48.862;9.188;2023-07-22T05:50:54;384.48;;;361.80;;
9208;SDS011;4639;48.862;9.188;2023-07-22T05:53:20;373.45;;;351.13;;
9208;SDS011;4639;48.862;9.188;2023-07-22T05:55:45;365.20;;;344.20;;
9208;SDS011;4639;48.862;9.188;2023-07-22T05:58:17;401.73;;;378.98;;
9208;SDS011;4639;48.862;9.188;2023-07-22T06:00:43;398.38;;;375.35;;
9208;SDS011;4639;48.862;9.188;2023-07-22T06:03:09;385.02;;;362.73;;
9208;SDS011;4639;48.862;9.188;2023-07-22T06:05:35;396.75;;;373.42;;
9208;SDS011;4639;48.862;9.188;2023-07-22T06:08:00;424.92;;;400.33;;
9208;SDS011;4639;48.862;9.188;2023-07-22T06:10:26;405.85;;;382.33;;
9208;SDS011;4639;48.862;9.188;2023-07-22T06:12:51;406.80;;;383.02;;
9208;SDS011;4639;48.862;9.188;2023-07-22T06:15:17;449.25;;;422.73;;
9208;SDS011;4639;48.862;9.188;2023-07-22T06:17:42;460.58;;;431.73;;
9208;SDS011;4639;48.862;9.188;2023-07-22T06:20:08;472.90;;;443.42;;
9208;SDS011;4639;48.862;9.188;2023-07-22T06:22:34;482.25;;;452.45;;
9208;SDS011;4639;48.862;9.188;2023-07-22T06:25:00;493.13;;;462.27;;
9208;SDS011;4639;48.862;9.188;2023-07-22T06:27:25;478.83;;;449.35;;
9208;SDS011;4639;48.862;9.188;2023-07-22T06:29:51;487.55;;;457.08;;
9208;SDS011;4639;48.862;9.188;2023-07-22T06:32:16;565.28;;;526.83;;
9208;SDS011;4639;48.862;9.188;2023-07-22T06:34:42;483.83;;;453.23;;
9208;SDS011;4639;48.862;9.188;2023-07-22T06:37:08;541.33;;;506.10;;
9208;SDS011;4639;48.862;9.188;2023-07-22T06:39:33;499.60;;;467.05;;
9208;SDS011;4639;48.862;9.188;2023-07-22T06:41:59;516.05;;;482.80;;
9208;SDS011;4639;48.862;9.188;2023-07-22T06:44:24;544.75;;;509.60;;
9208;SDS011;4639;48.862;9.188;2023-07-22T06:46:50;565.75;;;528.50;;
9208;SDS011;4639;48.862;9.188;2023-07-22T06:49:15;549.20;;;514.92;;
9208;SDS011;4639;48.862;9.188;2023-07-22T06:51:41;558.30;;;523.15;;
9208;SDS011;4639;48.862;9.188;2023-07-22T06:54:06;530.08;;;497.70;;
9208;SDS011;4639;48.862;9.188;2023-07-22T06:56:32;502.17;;;471.95;;
9208;SDS011;4639;48.862;9.188;2023-07-22T06:58:58;456.10;;;429.27;;
9208;SDS011;4639;48.862;9.188;2023-07-22T07:01:23;486.27;;;457.58;;
9208;SDS011;4639;48.862;9.188;2023-07-22T07:03:49;453.75;;;427.20;;
9208;SDS011;4639;48.862;9.188;2023-07-22T07:06:15;414.45;;;390.73;;
9208;SDS011;4639;48.862;9.188;2023-07-22T07:08:41;393.58;;;371.25;;
9208;SDS011;4639;48.862;9.188;2023-07-22T07:11:06;487.80;;;458.92;;
9208;SDS011;4639;48.862;9.188;2023-07-22T07:13:32;425.42;;;400.95;;
9208;SDS011;4639;48.862;9.188;2023-07-22T07:16:15;389.27;;;366.98;;
9208;SDS011;4639;48.862;9.188;2023-07-22T07:18:48;420.83;;;397.10;;
9208;SDS011;4639;48.862;9.188;2023-07-22T07:21:14;348.45;;;328.38;;
9208;SDS011;4639;48.862;9.188;2023-07-22T07:23:40;314.63;;;297.05;;
9208;SDS011;4639;48.862;9.188;2023-07-22T07:26:05;325.80;;;307.63;;
9208;SDS011;4639;48.862;9.188;2023-07-22T07:28:31;219.57;;;207.15;;
9208;SDS011;4639;48.862;9.188;2023-07-22T07:30:56;275.05;;;258.98;;
9208;SDS011;4639;48.862;9.188;2023-07-22T07:33:25;294.98;;;277.48;;
9208;SDS011;4639;48.862;9.188;2023-07-22T07:35:50;296.08;;;278.90;;
9208;SDS011;4639;48.862;9.188;2023-07-22T07:38:16;316.88;;;298.33;;
9208;SDS011;4639;48.862;9.188;2023-07-22T07:40:42;298.45;;;281.30;;
9208;SDS011;4639;48.862;9.188;2023-07-22T07:43:08;337.85;;;318.20;;
9208;SDS011;4639;48.862;9.188;2023-07-22T07:45:34;330.17;;;311.48;;
9208;SDS011;4639;48.862;9.188;2023-07-22T07:48:03;277.38;;;261.85;;
9208;SDS011;4639;48.862;9.188;2023-07-22T07:50:30;296.10;;;279.65;;
9208;SDS011;4639;48.862;9.188;2023-07-22T07:52:56;196.75;;;185.70;;
9208;SDS011;4639;48.862;9.188;2023-07-22T07:55:21;155.27;;;146.40;;
9208;SDS011;4639;48.862;9.188;2023-07-22T07:57:47;187.02;;;176.23;;
9208;SDS011;4639;48.862;9.188;2023-07-22T08:00:12;122.65;;;115.38;;
9208;SDS011;4639;48.862;9.188;2023-07-22T08:02:38;126.03;;;118.45;;
9208;SDS011;4639;48.862;9.188;2023-07-22T08:05:04;115.35;;;108.72;;
9208;SDS011;4639;48.862;9.188;2023-07-22T08:07:30;153.68;;;144.27;;
9208;SDS011;4639;48.862;9.188;2023-07-22T08:09:56;171.70;;;160.70;;
9208;SDS011;4639;48.862;9.188;2023-07-22T08:12:23;244.20;;;229.50;;
9208;SDS011;4639;48.862;9.188;2023-07-22T08:14:48;183.25;;;172.82;;
9208;SDS011;4639;48.862;9.188;2023-07-22T08:17:14;163.80;;;154.23;;
9208;SDS011;4639;48.862;9.188;2023-07-22T08:19:39;185.57;;;174.80;;
9208;SDS011;4639;48.862;9.188;2023-07-22T08:22:05;199.23;;;187.32;;
9208;SDS011;4639;48.862;9.188;2023-07-22T08:24:31;211.80;;;199.30;;
9208;SDS011;4639;48.862;9.188;2023-07-22T08:26:57;150.10;;;141.20;;
9208;SDS011;4639;48.862;9.188;2023-07-22T08:29:23;136.55;;;128.85;;
9208;SDS011;4639;48.862;9.188;2023-07-22T08:31:49;158.80;;;149.82;;
9208;SDS011;4639;48.862;9.188;2023-07-22T08:34:15;162.20;;;153.10;;
9208;SDS011;4639;48.862;9.188;2023-07-22T08:36:41;206.57;;;194.82;;
9208;SDS011;4639;48.862;9.188;2023-07-22T08:39:06;187.05;;;176.40;;
9208;SDS011;4639;48.862;9.188;2023-07-22T08:41:32;255.27;;;240.90;;
9208;SDS011;4639;48.862;9.188;2023-07-22T08:43:59;210.10;;;198.13;;
9208;SDS011;4639;48.862;9.188;2023-07-22T08:46:28;281.63;;;264.90;;
9208;SDS011;4639;48.862;9.188;2023-07-22T08:48:57;244.50;;;230.15;;
9208;SDS011;4639;48.862;9.188;2023-07-22T08:51:25;213.73;;;201.82;;
9208;SDS011;4639;48.862;9.188;2023-07-22T08:53:53;242.05;;;228.18;;
9208;SDS011;4639;48.862;9.188;2023-07-22T08:56:23;227.90;;;215.32;;
9208;SDS011;4639;48.862;9.188;2023-07-22T08:58:50;272.42;;;256.45;;
9208;SDS011;4639;48.862;9.188;2023-07-22T09:01:17;251.93;;;238.00;;
9208;SDS011;4639;48.862;9.188;2023-07-22T09:03:43;223.63;;;211.35;;
9208;SDS011;4639;48.862;9.188;2023-07-22T09:06:10;367.77;;;346.30;;
9208;SDS011;4639;48.862;9.188;2023-07-22T09:08:36;286.20;;;269.98;;
9208;SDS011;4639;48.862;9.188;2023-07-22T09:11:03;263.05;;;247.90;;
9208;SDS011;4639;48.862;9.188;2023-07-22T09:13:29;280.48;;;265.05;;
9208;SDS011;4639;48.862;9.188;2023-07-22T09:15:56;249.30;;;235.88;;
9208;SDS011;4639;48.862;9.188;2023-07-22T09:18:23;291.23;;;275.08;;
9208;SDS011;4639;48.862;9.188;2023-07-22T09:20:49;287.15;;;270.58;;
9208;SDS011;4639;48.862;9.188;2023-07-22T09:23:15;226.60;;;213.65;;
9208;SDS011;4639;48.862;9.188;2023-07-22T09:25:41;119.50;;;112.28;;
9208;SDS011;4639;48.862;9.188;2023-07-22T09:28:08;102.15;;;96.10;;
9208;SDS011;4639;48.862;9.188;2023-07-22T09:30:35;62.58;;;59.08;;
9208;SDS011;4639;48.862;9.188;2023-07-22T09:33:03;71.38;;;67.18;;
9208;SDS011;4639;48.862;9.188;2023-07-22T09:35:31;110.22;;;103.75;;
9208;SDS011;4639;48.862;9.188;2023-07-22T09:38:09;142.43;;;133.77;;
9208;SDS011;4639;48.862;9.188;2023-07-22T09:40:35;97.15;;;90.90;;
9208;SDS011;4639;48.862;9.188;2023-07-22T09:43:01;49.15;;;46.28;;
9208;SDS011;4639;48.862;9.188;2023-07-22T09:45:28;170.60;;;159.93;;
9208;SDS011;4639;48.862;9.188;2023-07-22T09:47:55;55.03;;;51.60;;
9208;SDS011;4639;48.862;9.188;2023-07-22T09:50:25;79.65;;;75.18;;
9208;SDS011;4639;48.862;9.188;2023-07-22T09:52:55;140.30;;;131.73;;
9208;SDS011;4639;48.862;9.188;2023-07-22T09:55:23;207.25;;;194.57;;
9208;SDS011;4639;48.862;9.188;2023-07-22T09:57:54;147.13;;;137.80;;
9208;SDS011;4639;48.862;9.188;2023-07-22T10:00:22;130.15;;;122.05;;
9208;SDS011;4639;48.862;9.188;2023-07-22T10:02:51;251.15;;;236.05;;
9208;SDS011;4639;48.862;9.188;2023-07-22T10:05:20;178.80;;;167.52;;
9208;SDS011;4639;48.862;9.188;2023-07-22T10:07:50;66.43;;;62.45;;
9208;SDS011;4639;48.862;9.188;2023-07-22T10:10:18;139.50;;;131.60;;
9208;SDS011;4639;48.862;9.188;2023-07-22T10:12:45;95.03;;;89.68;;
9208;SDS011;4639;48.862;9.188;2023-07-22T10:15:13;65.57;;;61.80;;
9208;SDS011;4639;48.862;9.188;2023-07-22T10:17:40;79.07;;;74.55;;
9208;SDS011;4639;48.862;9.188;2023-07-22T10:20:07;261.20;;;241.27;;
9208;SDS011;4639;48.862;9.188;2023-07-22T10:22:39;64.55;;;60.70;;
9208;SDS011;4639;48.862;9.188;2023-07-22T10:25:10;60.47;;;57.00;;
9208;SDS011;4639;48.862;9.188;2023-07-22T10:27:40;98.68;;;93.05;;
9208;SDS011;4639;48.862;9.188;2023-07-22T10:30:07;142.48;;;134.38;;
9208;SDS011;4639;48.862;9.188;2023-07-22T10:32:38;165.35;;;155.60;;
9208;SDS011;4639;48.862;9.188;2023-07-22T10:35:12;82.13;;;77.28;;
9208;SDS011;4639;48.862;9.188;2023-07-22T10:38:13;185.68;;;174.48;;
9208;SDS011;4639;48.862;9.188;2023-07-22T10:43:17;112.57;;;106.10;;
9208;SDS011;4639;48.862;9.188;2023-07-22T10:45:52;124.45;;;117.45;;
9208;SDS011;4639;48.862;9.188;2023-07-22T10:48:19;139.20;;;130.63;;
9208;SDS011;4639;48.862;9.188;2023-07-22T10:50:49;106.78;;;100.53;;
9208;SDS011;4639;48.862;9.188;2023-07-22T10:58:32;117.80;;;110.82;;
9208;SDS011;4639;48.862;9.188;2023-07-22T11:04:08;25.58;;;24.20;;
9208;SDS011;4639;48.862;9.188;2023-07-22T11:11:55;31.23;;;29.48;;
9208;SDS011;4639;48.862;9.188;2023-07-22T11:14:23;158.60;;;146.40;;
9208;SDS011;4639;48.862;9.188;2023-07-22T11:16:50;26.55;;;24.90;;
9208;SDS011;4639;48.862;9.188;2023-07-22T11:19:18;39.95;;;37.72;;
9208;SDS011;4639;48.862;9.188;2023-07-22T11:21:48;42.08;;;39.63;;
9208;SDS011;4639;48.862;9.188;2023-07-22T11:24:15;35.33;;;33.20;;
9208;SDS011;4639;48.862;9.188;2023-07-22T11:26:41;52.00;;;49.00;;
9208;SDS011;4639;48.862;9.188;2023-07-22T11:29:08;33.53;;;31.63;;
9208;SDS011;4639;48.862;9.188;2023-07-22T11:31:41;31.60;;;29.85;;
9208;SDS011;4639;48.862;9.188;2023-07-22T11:34:08;38.35;;;36.17;;
9208;SDS011;4639;48.862;9.188;2023-07-22T11:36:34;34.67;;;32.70;;
9208;SDS011;4639;48.862;9.188;2023-07-22T11:39:04;30.17;;;28.50;;
9208;SDS011;4639;48.862;9.188;2023-07-22T11:41:34;33.63;;;31.45;;
9208;SDS011;4639;48.862;9.188;2023-07-22T11:44:03;24.95;;;23.58;;
9208;SDS011;4639;48.862;9.188;2023-07-22T11:49:47;46.95;;;44.10;;
9208;SDS011;4639;48.862;9.188;2023-07-22T11:52:16;36.30;;;34.28;;
9208;SDS011;4639;48.862;9.188;2023-07-22T11:54:45;82.20;;;76.65;;
9208;SDS011;4639;48.862;9.188;2023-07-22T11:57:15;52.10;;;48.97;;
9208;SDS011;4639;48.862;9.188;2023-07-22T11:59:44;82.10;;;77.43;;
9208;SDS011;4639;48.862;9.188;2023-07-22T12:02:18;45.70;;;43.05;;
9208;SDS011;4639;48.862;9.188;2023-07-22T12:07:22;123.50;;;115.85;;
9208;SDS011;4639;48.862;9.188;2023-07-22T12:09:53;99.53;;;93.93;;
9208;SDS011;4639;48.862;9.188;2023-07-22T12:12:19;132.88;;;125.03;;
9208;SDS011;4639;48.862;9.188;2023-07-22T12:14:45;148.32;;;139.70;;
9208;SDS011;4639;48.862;9.188;2023-07-22T12:17:11;47.60;;;44.67;;
9208;SDS011;4639;48.862;9.188;2023-07-22T12:19:36;55.13;;;51.97;;
9208;SDS011;4639;48.862;9.188;2023-07-22T12:22:02;245.35;;;229.70;;
9208;SDS011;4639;48.862;9.188;2023-07-22T12:24:28;137.95;;;130.15;;
9208;SDS011;4639;48.862;9.188;2023-07-22T12:26:54;119.10;;;112.40;;
9208;SDS011;4639;48.862;9.188;2023-07-22T12:29:20;150.27;;;141.55;;
9208;SDS011;4639;48.862;9.188;2023-07-22T12:31:47;130.05;;;122.70;;
9208;SDS011;4639;48.862;9.188;2023-07-22T12:34:12;169.48;;;160.02;;
9208;SDS011;4639;48.862;9.188;2023-07-22T12:36:38;557.90;;;511.65;;
9208;SDS011;4639;48.862;9.188;2023-07-22T12:39:04;217.65;;;204.82;;
9208;SDS011;4639;48.862;9.188;2023-07-22T12:41:30;185.20;;;174.45;;
9208;SDS011;4639;48.862;9.188;2023-07-22T12:43:55;251.20;;;236.63;;
9208;SDS011;4639;48.862;9.188;2023-07-22T12:46:21;207.23;;;195.13;;
9208;SDS011;4639;48.862;9.188;2023-07-22T12:48:47;188.23;;;177.20;;
9208;SDS011;4639;48.862;9.188;2023-07-22T12:51:12;163.95;;;154.75;;
9208;SDS011;4639;48.862;9.188;2023-07-22T12:53:38;155.75;;;146.65;;
9208;SDS011;4639;48.862;9.188;2023-07-22T12:56:04;123.85;;;116.68;;
9208;SDS011;4639;48.862;9.188;2023-07-22T12:58:31;200.48;;;186.43;;
9208;SDS011;4639;48.862;9.188;2023-07-22T13:00:56;221.40;;;205.82;;
9208;SDS011;4639;48.862;9.188;2023-07-22T13:03:23;165.77;;;155.65;;
9208;SDS011;4639;48.862;9.188;2023-07-22T13:05:48;204.90;;;191.32;;
9208;SDS011;4639;48.862;9.188;2023-07-22T13:08:14;110.40;;;104.03;;
9208;SDS011;4639;48.862;9.188;2023-07-22T13:10:39;127.80;;;120.78;;
9208;SDS011;4639;48.862;9.188;2023-07-22T13:13:09;84.70;;;79.70;;
9208;SDS011;4639;48.862;9.188;2023-07-22T13:15:35;172.63;;;162.85;;
9208;SDS011;4639;48.862;9.188;2023-07-22T13:18:01;149.63;;;141.15;;
9208;SDS011;4639;48.862;9.188;2023-07-22T13:20:27;165.93;;;156.18;;
9208;SDS011;4639;48.862;9.188;2023-07-22T13:22:54;169.05;;;159.55;;
9208;SDS011;4639;48.862;9.188;2023-07-22T13:25:20;147.55;;;139.00;;
9208;SDS011;4639;48.862;9.188;2023-07-22T13:27:46;172.50;;;162.60;;
9208;SDS011;4639;48.862;9.188;2023-07-22T13:30:12;209.23;;;197.18;;
9208;SDS011;4639;48.862;9.188;2023-07-22T13:32:38;181.73;;;170.98;;
9208;SDS011;4639;48.862;9.188;2023-07-22T13:35:04;158.40;;;149.05;;
9208;SDS011;4639;48.862;9.188;2023-07-22T13:37:30;153.30;;;143.57;;
9208;SDS011;4639;48.862;9.188;2023-07-22T13:39:55;182.55;;;170.52;;
9208;SDS011;4639;48.862;9.188;2023-07-22T13:42:22;171.20;;;160.35;;
9208;SDS011;4639;48.862;9.188;2023-07-22T13:44:48;150.75;;;141.30;;
9208;SDS011;4639;48.862;9.188;2023-07-22T13:47:14;149.93;;;140.25;;
9208;SDS011;4639;48.862;9.188;2023-07-22T13:49:40;187.20;;;174.30;;
9208;SDS011;4639;48.862;9.188;2023-07-22T13:52:05;149.43;;;140.07;;
9208;SDS011;4639;48.862;9.188;2023-07-22T13:54:31;171.70;;;161.20;;
9208;SDS011;4639;48.862;9.188;2023-07-22T13:56:56;213.48;;;201.10;;
9208;SDS011;4639;48.862;9.188;2023-07-22T13:59:22;85.45;;;80.38;;
9208;SDS011;4639;48.862;9.188;2023-07-22T14:01:47;105.07;;;98.03;;
9208;SDS011;4639;48.862;9.188;2023-07-22T14:04:13;94.97;;;89.47;;
9208;SDS011;4639;48.862;9.188;2023-07-22T14:06:38;186.70;;;173.40;;
9208;SDS011;4639;48.862;9.188;2023-07-22T14:09:04;83.40;;;78.75;;
9208;SDS011;4639;48.862;9.188;2023-07-22T14:11:30;149.48;;;140.82;;
9208;SDS011;4639;48.862;9.188;2023-07-22T14:13:55;295.33;;;273.42;;
9208;SDS011;4639;48.862;9.188;2023-07-22T14:16:21;293.25;;;272.52;;
9208;SDS011;4639;48.862;9.188;2023-07-22T14:18:46;157.90;;;148.85;;
9208;SDS011;4639;48.862;9.188;2023-07-22T14:21:13;57.25;;;53.85;;
9208;SDS011;4639;48.862;9.188;2023-07-22T14:23:38;40.30;;;37.92;;
9208;SDS011;4639;48.862;9.188;2023-07-22T14:26:04;60.67;;;57.17;;
9208;SDS011;4639;48.862;9.188;2023-07-22T14:28:29;56.10;;;52.72;;
9208;SDS011;4639;48.862;9.188;2023-07-22T14:30:55;78.38;;;73.93;;
9208;SDS011;4639;48.862;9.188;2023-07-22T14:33:21;41.47;;;39.05;;
9208;SDS011;4639;48.862;9.188;2023-07-22T14:35:46;190.65;;;175.93;;
9208;SDS011;4639;48.862;9.188;2023-07-22T14:38:12;109.07;;;102.63;;
9208;SDS011;4639;48.862;9.188;2023-07-22T14:40:37;94.30;;;88.63;;
9208;SDS011;4639;48.862;9.188;2023-07-22T14:43:03;279.27;;;254.55;;
9208;SDS011;4639;48.862;9.188;2023-07-22T14:45:29;119.78;;;111.65;;